Country
Station

 

Weather  for  Wagga Airport  -  Australia    Australia

  
14 °C (57 °F)
    
 
 

Current METAR for Wagga Airport is :

YSWG 192100Z AUTO 10006KT 9999 // NCD 14/10 Q1020

 

This is a report for Wagga Airport - Australia.
 
The report was made 26 minutes ago, at 21:00 UTC .
The wind was blowing at a speed of 3.1 meters per second (6.9 miles per hour) from east (100°).
 
The temperature was 14 °C (57 °F), with a dew-point at 10 °C (50 °F).
The atmospheric pressure was 1020 hPa (30.12 inHg).
The relative humidity was 76.8%.
 
The overall visibility was greater than 10 kilometers (6.2 miles).
 

 
 
 
 

Country :   A   B   C   D   E   F   G   H   I   J   K   L   M   N   O   P   Q   R   S   T   U   V   W   Y   Z

 

Site Info  |  Disclaimer  |  Credits  |  Privacy
Contact us  |  Add to favorites
© 2013-2018 METARs - All rights reserved